sensor_id;sensor_type;location;lat;lon;timestamp;P1;durP1;ratioP1;P2;durP2;ratioP2
75993;SDS011;64680;53.800;9.988;2023-07-13T00:01:03;3.75;;;1.85;;
75993;SDS011;64680;53.800;9.988;2023-07-13T00:03:29;3.45;;;1.77;;
75993;SDS011;64680;53.800;9.988;2023-07-13T00:06:00;3.60;;;1.83;;
75993;SDS011;64680;53.800;9.988;2023-07-13T00:08:29;2.60;;;1.50;;
75993;SDS011;64680;53.800;9.988;2023-07-13T00:10:57;3.10;;;1.35;;
75993;SDS011;64680;53.800;9.988;2023-07-13T00:13:23;4.20;;;1.80;;
75993;SDS011;64680;53.800;9.988;2023-07-13T00:15:49;3.05;;;1.42;;
75993;SDS011;64680;53.800;9.988;2023-07-13T00:18:14;2.70;;;1.42;;
75993;SDS011;64680;53.800;9.988;2023-07-13T00:20:40;2.25;;;1.50;;
75993;SDS011;64680;53.800;9.988;2023-07-13T00:23:07;3.97;;;1.50;;
75993;SDS011;64680;53.800;9.988;2023-07-13T00:25:33;3.10;;;1.50;;
75993;SDS011;64680;53.800;9.988;2023-07-13T00:28:00;3.42;;;1.40;;
75993;SDS011;64680;53.800;9.988;2023-07-13T00:30:27;1.90;;;1.63;;
75993;SDS011;64680;53.800;9.988;2023-07-13T00:37:44;3.72;;;1.77;;
75993;SDS011;64680;53.800;9.988;2023-07-13T00:40:11;4.43;;;1.50;;
75993;SDS011;64680;53.800;9.988;2023-07-13T00:42:37;2.63;;;2.15;;
75993;SDS011;64680;53.800;9.988;2023-07-13T00:45:05;4.88;;;1.70;;
75993;SDS011;64680;53.800;9.988;2023-07-13T00:47:37;2.90;;;1.27;;
75993;SDS011;64680;53.800;9.988;2023-07-13T00:50:04;3.38;;;1.65;;
75993;SDS011;64680;53.800;9.988;2023-07-13T00:52:33;4.30;;;1.70;;
75993;SDS011;64680;53.800;9.988;2023-07-13T00:55:02;3.00;;;1.65;;
75993;SDS011;64680;53.800;9.988;2023-07-13T00:57:29;4.47;;;1.45;;
75993;SDS011;64680;53.800;9.988;2023-07-13T00:59:57;4.95;;;1.70;;
75993;SDS011;64680;53.800;9.988;2023-07-13T01:02:25;3.00;;;1.70;;
75993;SDS011;64680;53.800;9.988;2023-07-13T01:04:53;3.00;;;1.58;;
75993;SDS011;64680;53.800;9.988;2023-07-13T01:07:19;3.70;;;1.75;;
75993;SDS011;64680;53.800;9.988;2023-07-13T01:09:44;3.13;;;1.60;;
75993;SDS011;64680;53.800;9.988;2023-07-13T01:12:10;3.83;;;2.22;;
75993;SDS011;64680;53.800;9.988;2023-07-13T01:14:36;4.10;;;1.70;;
75993;SDS011;64680;53.800;9.988;2023-07-13T01:17:02;3.72;;;2.00;;
75993;SDS011;64680;53.800;9.988;2023-07-13T01:19:36;2.05;;;1.52;;
75993;SDS011;64680;53.800;9.988;2023-07-13T01:22:11;3.85;;;2.08;;
75993;SDS011;64680;53.800;9.988;2023-07-13T01:24:40;2.92;;;1.50;;
75993;SDS011;64680;53.800;9.988;2023-07-13T01:27:08;3.90;;;2.47;;
75993;SDS011;64680;53.800;9.988;2023-07-13T01:29:36;2.72;;;1.70;;
75993;SDS011;64680;53.800;9.988;2023-07-13T01:32:16;5.90;;;2.35;;
75993;SDS011;64680;53.800;9.988;2023-07-13T01:34:49;3.13;;;2.00;;
75993;SDS011;64680;53.800;9.988;2023-07-13T01:37:16;5.47;;;2.10;;
75993;SDS011;64680;53.800;9.988;2023-07-13T01:39:42;5.25;;;2.50;;
75993;SDS011;64680;53.800;9.988;2023-07-13T01:42:08;6.57;;;2.38;;
75993;SDS011;64680;53.800;9.988;2023-07-13T01:44:34;4.72;;;3.05;;
75993;SDS011;64680;53.800;9.988;2023-07-13T01:47:00;5.30;;;2.15;;
75993;SDS011;64680;53.800;9.988;2023-07-13T01:49:26;4.65;;;2.30;;
75993;SDS011;64680;53.800;9.988;2023-07-13T01:51:51;3.95;;;2.30;;
75993;SDS011;64680;53.800;9.988;2023-07-13T01:54:17;4.72;;;2.63;;
75993;SDS011;64680;53.800;9.988;2023-07-13T01:56:43;5.38;;;3.00;;
75993;SDS011;64680;53.800;9.988;2023-07-13T01:59:08;6.53;;;3.70;;
75993;SDS011;64680;53.800;9.988;2023-07-13T02:01:35;6.55;;;2.95;;
75993;SDS011;64680;53.800;9.988;2023-07-13T02:04:00;6.68;;;3.30;;
75993;SDS011;64680;53.800;9.988;2023-07-13T02:06:26;7.10;;;3.90;;
75993;SDS011;64680;53.800;9.988;2023-07-13T02:08:52;5.80;;;3.75;;
75993;SDS011;64680;53.800;9.988;2023-07-13T02:11:17;6.22;;;3.45;;
75993;SDS011;64680;53.800;9.988;2023-07-13T02:13:43;4.72;;;3.03;;
75993;SDS011;64680;53.800;9.988;2023-07-13T02:16:09;6.68;;;3.50;;
75993;SDS011;64680;53.800;9.988;2023-07-13T02:18:35;6.20;;;3.95;;
75993;SDS011;64680;53.800;9.988;2023-07-13T02:21:00;10.05;;;4.95;;
75993;SDS011;64680;53.800;9.988;2023-07-13T02:23:27;8.05;;;4.75;;
75993;SDS011;64680;53.800;9.988;2023-07-13T02:25:57;7.43;;;4.50;;
75993;SDS011;64680;53.800;9.988;2023-07-13T02:28:23;9.35;;;4.93;;
75993;SDS011;64680;53.800;9.988;2023-07-13T02:30:52;6.68;;;4.72;;
75993;SDS011;64680;53.800;9.988;2023-07-13T02:33:18;5.53;;;3.92;;
75993;SDS011;64680;53.800;9.988;2023-07-13T02:35:44;8.27;;;5.45;;
75993;SDS011;64680;53.800;9.988;2023-07-13T02:38:09;7.18;;;4.13;;
75993;SDS011;64680;53.800;9.988;2023-07-13T02:40:35;5.35;;;3.90;;
75993;SDS011;64680;53.800;9.988;2023-07-13T02:43:02;7.20;;;4.28;;
75993;SDS011;64680;53.800;9.988;2023-07-13T02:45:27;6.45;;;4.25;;
75993;SDS011;64680;53.800;9.988;2023-07-13T02:47:53;7.55;;;3.88;;
75993;SDS011;64680;53.800;9.988;2023-07-13T02:50:19;6.63;;;3.97;;
75993;SDS011;64680;53.800;9.988;2023-07-13T02:52:45;5.57;;;3.97;;
75993;SDS011;64680;53.800;9.988;2023-07-13T02:55:11;4.70;;;3.85;;
75993;SDS011;64680;53.800;9.988;2023-07-13T02:57:36;6.32;;;4.65;;
75993;SDS011;64680;53.800;9.988;2023-07-13T03:00:02;8.18;;;4.75;;
75993;SDS011;64680;53.800;9.988;2023-07-13T03:02:32;7.22;;;4.65;;
75993;SDS011;64680;53.800;9.988;2023-07-13T03:04:58;8.23;;;4.82;;
75993;SDS011;64680;53.800;9.988;2023-07-13T03:07:24;8.35;;;4.63;;
75993;SDS011;64680;53.800;9.988;2023-07-13T03:09:54;5.82;;;4.30;;
75993;SDS011;64680;53.800;9.988;2023-07-13T03:12:22;7.95;;;4.75;;
75993;SDS011;64680;53.800;9.988;2023-07-13T03:14:48;9.10;;;5.32;;
75993;SDS011;64680;53.800;9.988;2023-07-13T03:17:13;7.75;;;5.15;;
75993;SDS011;64680;53.800;9.988;2023-07-13T03:19:39;11.95;;;6.50;;
75993;SDS011;64680;53.800;9.988;2023-07-13T03:22:05;7.78;;;5.63;;
75993;SDS011;64680;53.800;9.988;2023-07-13T03:24:32;7.30;;;5.10;;
75993;SDS011;64680;53.800;9.988;2023-07-13T03:29:28;5.90;;;4.22;;
75993;SDS011;64680;53.800;9.988;2023-07-13T03:34:19;8.65;;;5.38;;
75993;SDS011;64680;53.800;9.988;2023-07-13T03:36:44;7.10;;;4.68;;
75993;SDS011;64680;53.800;9.988;2023-07-13T03:39:10;7.90;;;5.70;;
75993;SDS011;64680;53.800;9.988;2023-07-13T03:41:36;7.90;;;5.07;;
75993;SDS011;64680;53.800;9.988;2023-07-13T03:44:01;6.40;;;4.65;;
75993;SDS011;64680;53.800;9.988;2023-07-13T03:46:27;11.45;;;6.10;;
75993;SDS011;64680;53.800;9.988;2023-07-13T03:48:53;7.55;;;5.28;;
75993;SDS011;64680;53.800;9.988;2023-07-13T03:51:19;6.28;;;4.57;;
75993;SDS011;64680;53.800;9.988;2023-07-13T03:53:45;7.82;;;4.93;;
75993;SDS011;64680;53.800;9.988;2023-07-13T03:56:12;6.75;;;5.80;;
75993;SDS011;64680;53.800;9.988;2023-07-13T03:58:40;6.38;;;4.30;;
75993;SDS011;64680;53.800;9.988;2023-07-13T04:01:08;6.32;;;4.95;;
75993;SDS011;64680;53.800;9.988;2023-07-13T04:03:35;6.97;;;4.90;;
75993;SDS011;64680;53.800;9.988;2023-07-13T04:06:02;8.68;;;4.80;;
75993;SDS011;64680;53.800;9.988;2023-07-13T04:08:30;8.85;;;5.72;;
75993;SDS011;64680;53.800;9.988;2023-07-13T04:10:58;7.40;;;4.93;;
75993;SDS011;64680;53.800;9.988;2023-07-13T04:13:24;5.38;;;4.10;;
75993;SDS011;64680;53.800;9.988;2023-07-13T04:15:52;6.40;;;4.63;;
75993;SDS011;64680;53.800;9.988;2023-07-13T04:18:18;7.00;;;4.38;;
75993;SDS011;64680;53.800;9.988;2023-07-13T04:20:45;8.00;;;4.25;;
75993;SDS011;64680;53.800;9.988;2023-07-13T04:23:11;8.07;;;4.68;;
75993;SDS011;64680;53.800;9.988;2023-07-13T04:25:37;7.22;;;4.35;;
75993;SDS011;64680;53.800;9.988;2023-07-13T04:28:03;8.93;;;4.90;;
75993;SDS011;64680;53.800;9.988;2023-07-13T04:30:29;6.68;;;4.40;;
75993;SDS011;64680;53.800;9.988;2023-07-13T04:32:56;7.35;;;4.28;;
75993;SDS011;64680;53.800;9.988;2023-07-13T04:35:21;7.60;;;3.95;;
75993;SDS011;64680;53.800;9.988;2023-07-13T04:37:48;8.15;;;4.47;;
75993;SDS011;64680;53.800;9.988;2023-07-13T04:42:44;5.43;;;3.70;;
75993;SDS011;64680;53.800;9.988;2023-07-13T04:45:11;5.75;;;3.78;;
75993;SDS011;64680;53.800;9.988;2023-07-13T04:52:30;5.63;;;3.08;;
75993;SDS011;64680;53.800;9.988;2023-07-13T04:54:55;8.25;;;3.60;;
75993;SDS011;64680;53.800;9.988;2023-07-13T04:57:21;5.90;;;3.30;;
75993;SDS011;64680;53.800;9.988;2023-07-13T04:59:47;5.95;;;3.05;;
75993;SDS011;64680;53.800;9.988;2023-07-13T05:02:13;5.63;;;3.08;;
75993;SDS011;64680;53.800;9.988;2023-07-13T05:04:39;7.97;;;2.65;;
75993;SDS011;64680;53.800;9.988;2023-07-13T05:07:05;12.93;;;3.45;;
75993;SDS011;64680;53.800;9.988;2023-07-13T05:09:31;5.22;;;3.05;;
75993;SDS011;64680;53.800;9.988;2023-07-13T05:11:57;5.53;;;2.70;;
75993;SDS011;64680;53.800;9.988;2023-07-13T05:14:22;7.65;;;2.50;;
75993;SDS011;64680;53.800;9.988;2023-07-13T05:16:48;5.20;;;2.80;;
75993;SDS011;64680;53.800;9.988;2023-07-13T05:19:13;8.48;;;3.05;;
75993;SDS011;64680;53.800;9.988;2023-07-13T05:21:39;9.25;;;3.65;;
75993;SDS011;64680;53.800;9.988;2023-07-13T05:24:06;4.40;;;2.60;;
75993;SDS011;64680;53.800;9.988;2023-07-13T05:26:31;6.28;;;3.30;;
75993;SDS011;64680;53.800;9.988;2023-07-13T05:28:57;4.32;;;2.70;;
75993;SDS011;64680;53.800;9.988;2023-07-13T05:31:23;9.25;;;3.17;;
75993;SDS011;64680;53.800;9.988;2023-07-13T05:33:48;7.13;;;3.20;;
75993;SDS011;64680;53.800;9.988;2023-07-13T05:36:14;6.40;;;3.03;;
75993;SDS011;64680;53.800;9.988;2023-07-13T05:38:40;5.82;;;2.55;;
75993;SDS011;64680;53.800;9.988;2023-07-13T05:41:06;6.72;;;3.13;;
75993;SDS011;64680;53.800;9.988;2023-07-13T05:43:31;6.63;;;2.90;;
75993;SDS011;64680;53.800;9.988;2023-07-13T05:45:57;5.10;;;3.45;;
75993;SDS011;64680;53.800;9.988;2023-07-13T05:48:26;7.28;;;2.83;;
75993;SDS011;64680;53.800;9.988;2023-07-13T05:50:52;9.05;;;4.00;;
75993;SDS011;64680;53.800;9.988;2023-07-13T05:53:18;6.25;;;3.25;;
75993;SDS011;64680;53.800;9.988;2023-07-13T05:55:44;6.70;;;3.17;;
75993;SDS011;64680;53.800;9.988;2023-07-13T05:58:18;5.82;;;2.80;;
75993;SDS011;64680;53.800;9.988;2023-07-13T06:00:44;7.95;;;3.40;;
75993;SDS011;64680;53.800;9.988;2023-07-13T06:03:09;10.00;;;3.33;;
75993;SDS011;64680;53.800;9.988;2023-07-13T06:05:35;6.93;;;3.63;;
75993;SDS011;64680;53.800;9.988;2023-07-13T06:08:02;11.95;;;4.05;;
75993;SDS011;64680;53.800;9.988;2023-07-13T06:10:28;8.15;;;3.53;;
75993;SDS011;64680;53.800;9.988;2023-07-13T06:12:56;9.77;;;3.45;;
75993;SDS011;64680;53.800;9.988;2023-07-13T06:15:22;6.78;;;3.90;;
75993;SDS011;64680;53.800;9.988;2023-07-13T06:17:48;12.90;;;3.55;;
75993;SDS011;64680;53.800;9.988;2023-07-13T06:20:14;9.45;;;4.00;;
75993;SDS011;64680;53.800;9.988;2023-07-13T06:22:39;12.10;;;3.30;;
75993;SDS011;64680;53.800;9.988;2023-07-13T06:25:05;9.32;;;3.30;;
75993;SDS011;64680;53.800;9.988;2023-07-13T06:27:31;6.72;;;2.75;;
75993;SDS011;64680;53.800;9.988;2023-07-13T06:29:57;8.45;;;2.90;;
75993;SDS011;64680;53.800;9.988;2023-07-13T06:32:22;7.18;;;2.85;;
75993;SDS011;64680;53.800;9.988;2023-07-13T06:34:48;9.35;;;3.20;;
75993;SDS011;64680;53.800;9.988;2023-07-13T06:37:13;8.80;;;3.30;;
75993;SDS011;64680;53.800;9.988;2023-07-13T06:39:39;8.00;;;2.92;;
75993;SDS011;64680;53.800;9.988;2023-07-13T06:42:05;9.38;;;2.95;;
75993;SDS011;64680;53.800;9.988;2023-07-13T06:44:31;9.00;;;3.45;;
75993;SDS011;64680;53.800;9.988;2023-07-13T06:46:56;8.02;;;3.30;;
75993;SDS011;64680;53.800;9.988;2023-07-13T06:49:22;6.90;;;2.67;;
75993;SDS011;64680;53.800;9.988;2023-07-13T06:51:48;7.47;;;3.08;;
75993;SDS011;64680;53.800;9.988;2023-07-13T06:54:13;8.27;;;3.03;;
75993;SDS011;64680;53.800;9.988;2023-07-13T06:56:39;6.38;;;2.70;;
75993;SDS011;64680;53.800;9.988;2023-07-13T06:59:04;6.85;;;2.70;;
75993;SDS011;64680;53.800;9.988;2023-07-13T07:01:30;7.63;;;2.55;;
75993;SDS011;64680;53.800;9.988;2023-07-13T07:03:59;9.45;;;2.80;;
75993;SDS011;64680;53.800;9.988;2023-07-13T07:06:27;9.38;;;2.40;;
75993;SDS011;64680;53.800;9.988;2023-07-13T07:08:52;7.53;;;2.30;;
75993;SDS011;64680;53.800;9.988;2023-07-13T07:11:22;5.38;;;2.33;;
75993;SDS011;64680;53.800;9.988;2023-07-13T07:13:49;5.90;;;2.20;;
75993;SDS011;64680;53.800;9.988;2023-07-13T07:16:15;6.88;;;2.20;;
75993;SDS011;64680;53.800;9.988;2023-07-13T07:18:41;7.93;;;2.00;;
75993;SDS011;64680;53.800;9.988;2023-07-13T07:21:06;7.25;;;2.40;;
75993;SDS011;64680;53.800;9.988;2023-07-13T07:23:33;7.40;;;2.53;;
75993;SDS011;64680;53.800;9.988;2023-07-13T07:25:58;8.30;;;2.30;;
75993;SDS011;64680;53.800;9.988;2023-07-13T07:28:24;8.32;;;2.60;;
75993;SDS011;64680;53.800;9.988;2023-07-13T07:30:52;7.30;;;2.60;;
75993;SDS011;64680;53.800;9.988;2023-07-13T07:33:18;6.00;;;1.77;;
75993;SDS011;64680;53.800;9.988;2023-07-13T07:35:44;5.55;;;1.88;;
75993;SDS011;64680;53.800;9.988;2023-07-13T07:38:10;9.23;;;2.50;;
75993;SDS011;64680;53.800;9.988;2023-07-13T07:40:39;6.40;;;1.90;;
75993;SDS011;64680;53.800;9.988;2023-07-13T07:43:09;6.18;;;1.80;;
75993;SDS011;64680;53.800;9.988;2023-07-13T07:45:37;4.78;;;1.90;;
75993;SDS011;64680;53.800;9.988;2023-07-13T07:48:03;6.38;;;1.88;;
75993;SDS011;64680;53.800;9.988;2023-07-13T07:50:30;6.97;;;1.70;;
75993;SDS011;64680;53.800;9.988;2023-07-13T07:52:56;6.45;;;1.90;;
75993;SDS011;64680;53.800;9.988;2023-07-13T07:55:22;5.90;;;1.88;;
75993;SDS011;64680;53.800;9.988;2023-07-13T07:57:51;6.97;;;1.70;;
75993;SDS011;64680;53.800;9.988;2023-07-13T08:00:20;5.00;;;1.52;;
75993;SDS011;64680;53.800;9.988;2023-07-13T08:02:46;7.55;;;1.77;;
75993;SDS011;64680;53.800;9.988;2023-07-13T08:05:12;4.57;;;1.50;;
75993;SDS011;64680;53.800;9.988;2023-07-13T08:07:38;6.63;;;1.63;;
75993;SDS011;64680;53.800;9.988;2023-07-13T08:10:04;8.05;;;1.95;;
75993;SDS011;64680;53.800;9.988;2023-07-13T08:12:33;4.88;;;2.17;;
75993;SDS011;64680;53.800;9.988;2023-07-13T08:15:00;7.40;;;1.73;;
75993;SDS011;64680;53.800;9.988;2023-07-13T08:17:25;6.95;;;1.50;;
75993;SDS011;64680;53.800;9.988;2023-07-13T08:19:51;7.00;;;1.65;;
75993;SDS011;64680;53.800;9.988;2023-07-13T08:22:17;6.55;;;1.95;;
75993;SDS011;64680;53.800;9.988;2023-07-13T08:24:43;6.45;;;1.40;;
75993;SDS011;64680;53.800;9.988;2023-07-13T08:27:09;8.15;;;1.77;;
75993;SDS011;64680;53.800;9.988;2023-07-13T08:29:36;4.25;;;1.60;;
75993;SDS011;64680;53.800;9.988;2023-07-13T08:32:02;10.55;;;1.80;;
75993;SDS011;64680;53.800;9.988;2023-07-13T08:34:29;6.07;;;1.58;;
75993;SDS011;64680;53.800;9.988;2023-07-13T08:36:55;4.18;;;1.45;;
75993;SDS011;64680;53.800;9.988;2023-07-13T08:39:20;5.95;;;1.92;;
75993;SDS011;64680;53.800;9.988;2023-07-13T08:41:50;4.00;;;1.42;;
75993;SDS011;64680;53.800;9.988;2023-07-13T08:44:29;5.25;;;1.77;;
75993;SDS011;64680;53.800;9.988;2023-07-13T08:47:11;8.05;;;1.83;;
75993;SDS011;64680;53.800;9.988;2023-07-13T08:49:40;4.63;;;1.58;;
75993;SDS011;64680;53.800;9.988;2023-07-13T08:54:41;4.50;;;1.20;;
75993;SDS011;64680;53.800;9.988;2023-07-13T08:57:15;5.20;;;1.75;;
75993;SDS011;64680;53.800;9.988;2023-07-13T08:59:44;5.88;;;1.55;;
75993;SDS011;64680;53.800;9.988;2023-07-13T09:15:01;5.15;;;1.58;;
75993;SDS011;64680;53.800;9.988;2023-07-13T09:17:40;6.03;;;1.70;;
75993;SDS011;64680;53.800;9.988;2023-07-13T09:22:55;6.15;;;1.70;;
75993;SDS011;64680;53.800;9.988;2023-07-13T09:27:53;5.28;;;1.77;;
75993;SDS011;64680;53.800;9.988;2023-07-13T09:33:28;4.45;;;1.75;;
75993;SDS011;64680;53.800;9.988;2023-07-13T09:35:56;7.03;;;1.70;;
75993;SDS011;64680;53.800;9.988;2023-07-13T09:38:25;5.65;;;1.88;;
75993;SDS011;64680;53.800;9.988;2023-07-13T09:43:35;7.47;;;1.90;;
75993;SDS011;64680;53.800;9.988;2023-07-13T09:46:01;4.20;;;1.60;;
75993;SDS011;64680;53.800;9.988;2023-07-13T09:48:30;5.47;;;1.50;;
75993;SDS011;64680;53.800;9.988;2023-07-13T09:51:12;7.53;;;2.15;;
75993;SDS011;64680;53.800;9.988;2023-07-13T09:53:41;6.63;;;2.15;;
75993;SDS011;64680;53.800;9.988;2023-07-13T09:56:18;6.07;;;1.75;;
75993;SDS011;64680;53.800;9.988;2023-07-13T09:59:02;4.43;;;1.70;;
75993;SDS011;64680;53.800;9.988;2023-07-13T10:01:33;4.82;;;1.45;;
75993;SDS011;64680;53.800;9.988;2023-07-13T10:04:13;3.28;;;1.20;;
75993;SDS011;64680;53.800;9.988;2023-07-13T10:06:43;3.55;;;1.33;;
75993;SDS011;64680;53.800;9.988;2023-07-13T10:09:09;3.15;;;1.60;;
75993;SDS011;64680;53.800;9.988;2023-07-13T10:11:39;5.63;;;1.63;;
75993;SDS011;64680;53.800;9.988;2023-07-13T10:14:16;3.45;;;1.33;;
75993;SDS011;64680;53.800;9.988;2023-07-13T10:16:47;5.22;;;1.52;;
75993;SDS011;64680;53.800;9.988;2023-07-13T10:19:29;5.50;;;1.60;;
75993;SDS011;64680;53.800;9.988;2023-07-13T10:22:02;4.38;;;1.75;;
75993;SDS011;64680;53.800;9.988;2023-07-13T10:24:42;4.65;;;1.70;;
75993;SDS011;64680;53.800;9.988;2023-07-13T10:27:18;4.63;;;1.63;;
75993;SDS011;64680;53.800;9.988;2023-07-13T10:32:37;7.47;;;2.35;;
75993;SDS011;64680;53.800;9.988;2023-07-13T10:35:03;7.57;;;2.08;;
75993;SDS011;64680;53.800;9.988;2023-07-13T10:37:33;10.00;;;2.30;;
75993;SDS011;64680;53.800;9.988;2023-07-13T10:40:06;5.97;;;1.95;;
75993;SDS011;64680;53.800;9.988;2023-07-13T10:42:39;4.10;;;1.77;;
75993;SDS011;64680;53.800;9.988;2023-07-13T10:45:13;4.28;;;1.30;;
75993;SDS011;64680;53.800;9.988;2023-07-13T10:47:40;3.22;;;1.73;;
75993;SDS011;64680;53.800;9.988;2023-07-13T10:50:07;4.45;;;1.60;;
75993;SDS011;64680;53.800;9.988;2023-07-13T10:58:03;3.28;;;2.30;;
75993;SDS011;64680;53.800;9.988;2023-07-13T11:01:08;5.80;;;2.92;;
75993;SDS011;64680;53.800;9.988;2023-07-13T11:03:53;5.22;;;3.10;;
75993;SDS011;64680;53.800;9.988;2023-07-13T11:08:57;5.13;;;1.92;;
75993;SDS011;64680;53.800;9.988;2023-07-13T11:11:32;3.28;;;1.35;;
75993;SDS011;64680;53.800;9.988;2023-07-13T11:14:00;1.92;;;1.02;;
75993;SDS011;64680;53.800;9.988;2023-07-13T11:16:34;2.20;;;1.00;;
75993;SDS011;64680;53.800;9.988;2023-07-13T11:21:27;3.05;;;1.27;;
75993;SDS011;64680;53.800;9.988;2023-07-13T11:24:02;1.95;;;1.00;;
75993;SDS011;64680;53.800;9.988;2023-07-13T11:26:38;3.20;;;1.10;;
75993;SDS011;64680;53.800;9.988;2023-07-13T11:29:24;3.70;;;1.42;;
75993;SDS011;64680;53.800;9.988;2023-07-13T11:31:58;3.50;;;0.90;;
75993;SDS011;64680;53.800;9.988;2023-07-13T11:34:27;3.50;;;1.10;;
75993;SDS011;64680;53.800;9.988;2023-07-13T11:36:59;1.25;;;0.80;;
75993;SDS011;64680;53.800;9.988;2023-07-13T11:39:29;3.55;;;1.20;;
75993;SDS011;64680;53.800;9.988;2023-07-13T11:41:58;3.63;;;1.25;;
75993;SDS011;64680;53.800;9.988;2023-07-13T11:44:29;3.92;;;1.15;;
75993;SDS011;64680;53.800;9.988;2023-07-13T11:46:56;3.03;;;1.00;;
75993;SDS011;64680;53.800;9.988;2023-07-13T11:49:26;1.92;;;0.80;;
75993;SDS011;64680;53.800;9.988;2023-07-13T11:51:54;3.78;;;1.17;;
75993;SDS011;64680;53.800;9.988;2023-07-13T11:54:32;4.07;;;1.10;;
75993;SDS011;64680;53.800;9.988;2023-07-13T11:57:01;3.95;;;1.35;;
75993;SDS011;64680;53.800;9.988;2023-07-13T11:59:48;4.75;;;1.48;;
75993;SDS011;64680;53.800;9.988;2023-07-13T12:04:50;5.68;;;1.95;;
75993;SDS011;64680;53.800;9.988;2023-07-13T12:07:17;8.65;;;3.00;;
75993;SDS011;64680;53.800;9.988;2023-07-13T12:09:44;4.40;;;2.33;;
75993;SDS011;64680;53.800;9.988;2023-07-13T12:12:14;4.30;;;1.98;;
75993;SDS011;64680;53.800;9.988;2023-07-13T12:14:43;8.23;;;2.10;;
75993;SDS011;64680;53.800;9.988;2023-07-13T12:17:19;4.95;;;1.75;;
75993;SDS011;64680;53.800;9.988;2023-07-13T12:19:46;3.75;;;1.63;;
75993;SDS011;64680;53.800;9.988;2023-07-13T12:22:13;3.42;;;1.45;;
75993;SDS011;64680;53.800;9.988;2023-07-13T12:24:41;2.42;;;1.30;;
75993;SDS011;64680;53.800;9.988;2023-07-13T12:27:15;1.35;;;1.15;;
75993;SDS011;64680;53.800;9.988;2023-07-13T12:30:21;1.65;;;1.13;;
75993;SDS011;64680;53.800;9.988;2023-07-13T12:32:58;1.70;;;1.10;;
75993;SDS011;64680;53.800;9.988;2023-07-13T12:35:38;1.85;;;1.45;;
75993;SDS011;64680;53.800;9.988;2023-07-13T12:38:09;2.85;;;1.60;;
75993;SDS011;64680;53.800;9.988;2023-07-13T12:40:36;4.47;;;1.60;;
75993;SDS011;64680;53.800;9.988;2023-07-13T12:43:02;4.28;;;1.48;;
75993;SDS011;64680;53.800;9.988;2023-07-13T12:45:32;3.72;;;1.80;;
75993;SDS011;64680;53.800;9.988;2023-07-13T12:47:59;4.85;;;2.17;;
75993;SDS011;64680;53.800;9.988;2023-07-13T12:50:39;3.50;;;2.42;;
75993;SDS011;64680;53.800;9.988;2023-07-13T12:53:15;5.18;;;2.30;;
75993;SDS011;64680;53.800;9.988;2023-07-13T12:55:46;4.55;;;3.17;;
75993;SDS011;64680;53.800;9.988;2023-07-13T12:58:21;5.03;;;2.33;;
75993;SDS011;64680;53.800;9.988;2023-07-13T13:00:53;4.88;;;2.58;;
75993;SDS011;64680;53.800;9.988;2023-07-13T13:06:20;5.35;;;2.80;;
75993;SDS011;64680;53.800;9.988;2023-07-13T13:08:45;3.92;;;2.35;;
75993;SDS011;64680;53.800;9.988;2023-07-13T13:11:13;5.47;;;2.95;;
75993;SDS011;64680;53.800;9.988;2023-07-13T13:13:43;5.97;;;2.72;;
75993;SDS011;64680;53.800;9.988;2023-07-13T13:16:12;5.20;;;2.38;;
75993;SDS011;64680;53.800;9.988;2023-07-13T13:18:47;6.13;;;2.33;;
75993;SDS011;64680;53.800;9.988;2023-07-13T13:21:14;3.47;;;1.92;;
75993;SDS011;64680;53.800;9.988;2023-07-13T13:26:10;4.80;;;1.85;;
75993;SDS011;64680;53.800;9.988;2023-07-13T13:28:36;4.85;;;2.13;;
75993;SDS011;64680;53.800;9.988;2023-07-13T13:31:02;4.22;;;2.10;;
75993;SDS011;64680;53.800;9.988;2023-07-13T13:33:28;6.88;;;2.38;;
75993;SDS011;64680;53.800;9.988;2023-07-13T13:38:22;2.72;;;1.40;;
75993;SDS011;64680;53.800;9.988;2023-07-13T13:40:50;4.63;;;1.52;;
75993;SDS011;64680;53.800;9.988;2023-07-13T13:45:51;4.00;;;1.52;;
75993;SDS011;64680;53.800;9.988;2023-07-13T13:48:23;5.70;;;1.95;;
75993;SDS011;64680;53.800;9.988;2023-07-13T13:50:56;3.00;;;2.00;;
75993;SDS011;64680;53.800;9.988;2023-07-13T13:53:23;2.22;;;1.00;;
75993;SDS011;64680;53.800;9.988;2023-07-13T13:55:48;1.95;;;1.30;;
75993;SDS011;64680;53.800;9.988;2023-07-13T13:58:15;3.17;;;1.38;;
75993;SDS011;64680;53.800;9.988;2023-07-13T14:00:41;6.30;;;2.42;;
75993;SDS011;64680;53.800;9.988;2023-07-13T14:03:20;5.22;;;2.50;;
75993;SDS011;64680;53.800;9.988;2023-07-13T14:05:47;4.63;;;2.03;;
75993;SDS011;64680;53.800;9.988;2023-07-13T14:08:17;4.05;;;1.75;;
75993;SDS011;64680;53.800;9.988;2023-07-13T14:10:45;2.80;;;1.33;;
75993;SDS011;64680;53.800;9.988;2023-07-13T14:13:25;2.47;;;0.90;;
75993;SDS011;64680;53.800;9.988;2023-07-13T14:15:53;1.30;;;0.80;;
75993;SDS011;64680;53.800;9.988;2023-07-13T14:18:19;1.98;;;0.90;;
75993;SDS011;64680;53.800;9.988;2023-07-13T14:20:45;2.47;;;0.70;;
75993;SDS011;64680;53.800;9.988;2023-07-13T14:23:13;2.65;;;0.77;;
75993;SDS011;64680;53.800;9.988;2023-07-13T14:25:40;1.55;;;0.90;;
75993;SDS011;64680;53.800;9.988;2023-07-13T14:28:40;1.50;;;0.55;;
75993;SDS011;64680;53.800;9.988;2023-07-13T14:31:07;2.67;;;0.80;;
75993;SDS011;64680;53.800;9.988;2023-07-13T14:33:33;2.72;;;1.05;;
75993;SDS011;64680;53.800;9.988;2023-07-13T14:35:59;2.05;;;0.95;;
75993;SDS011;64680;53.800;9.988;2023-07-13T14:38:25;1.70;;;0.80;;
75993;SDS011;64680;53.800;9.988;2023-07-13T14:40:50;2.25;;;1.75;;
75993;SDS011;64680;53.800;9.988;2023-07-13T14:43:17;2.40;;;1.00;;
75993;SDS011;64680;53.800;9.988;2023-07-13T14:45:46;2.63;;;1.17;;
75993;SDS011;64680;53.800;9.988;2023-07-13T14:48:15;5.20;;;1.13;;
75993;SDS011;64680;53.800;9.988;2023-07-13T14:50:43;3.58;;;1.00;;
75993;SDS011;64680;53.800;9.988;2023-07-13T14:53:11;2.50;;;0.70;;
75993;SDS011;64680;53.800;9.988;2023-07-13T14:55:38;0.85;;;0.70;;
75993;SDS011;64680;53.800;9.988;2023-07-13T14:58:04;2.83;;;0.70;;
75993;SDS011;64680;53.800;9.988;2023-07-13T15:00:29;1.52;;;0.70;;
75993;SDS011;64680;53.800;9.988;2023-07-13T15:02:56;1.45;;;0.60;;
75993;SDS011;64680;53.800;9.988;2023-07-13T15:05:25;3.05;;;0.75;;
75993;SDS011;64680;53.800;9.988;2023-07-13T15:07:55;2.60;;;0.70;;
75993;SDS011;64680;53.800;9.988;2023-07-13T15:10:27;5.60;;;0.90;;
75993;SDS011;64680;53.800;9.988;2023-07-13T15:12:59;4.15;;;0.80;;
75993;SDS011;64680;53.800;9.988;2023-07-13T15:15:30;2.00;;;0.60;;
75993;SDS011;64680;53.800;9.988;2023-07-13T15:17:58;4.05;;;0.70;;
75993;SDS011;64680;53.800;9.988;2023-07-13T15:20:29;1.52;;;0.50;;
75993;SDS011;64680;53.800;9.988;2023-07-13T15:22:57;4.07;;;1.05;;
75993;SDS011;64680;53.800;9.988;2023-07-13T15:25:24;4.40;;;0.73;;
75993;SDS011;64680;53.800;9.988;2023-07-13T15:27:52;2.88;;;0.80;;
75993;SDS011;64680;53.800;9.988;2023-07-13T15:30:21;3.20;;;0.80;;
75993;SDS011;64680;53.800;9.988;2023-07-13T15:32:47;3.95;;;0.93;;
75993;SDS011;64680;53.800;9.988;2023-07-13T15:35:21;2.08;;;0.63;;
75993;SDS011;64680;53.800;9.988;2023-07-13T15:37:51;4.15;;;1.00;;
75993;SDS011;64680;53.800;9.988;2023-07-13T15:40:17;3.35;;;0.95;;
75993;SDS011;64680;53.800;9.988;2023-07-13T15:42:46;2.95;;;0.88;;
75993;SDS011;64680;53.800;9.988;2023-07-13T15:47:44;2.17;;;0.90;;
75993;SDS011;64680;53.800;9.988;2023-07-13T15:50:13;3.30;;;1.10;;
75993;SDS011;64680;53.800;9.988;2023-07-13T15:52:40;1.88;;;0.88;;
75993;SDS011;64680;53.800;9.988;2023-07-13T15:55:10;4.38;;;1.13;;
75993;SDS011;64680;53.800;9.988;2023-07-13T15:57:37;3.50;;;1.00;;
75993;SDS011;64680;53.800;9.988;2023-07-13T16:00:03;2.72;;;1.30;;
75993;SDS011;64680;53.800;9.988;2023-07-13T16:02:37;1.90;;;1.00;;
75993;SDS011;64680;53.800;9.988;2023-07-13T16:05:03;3.03;;;0.80;;
75993;SDS011;64680;53.800;9.988;2023-07-13T16:07:29;3.83;;;0.90;;